createdAt,value
2022-12-02T00:00:55.366Z,20.40
2022-12-02T00:03:25.841Z,21.67
2022-12-02T00:05:56.225Z,19.23
2022-12-02T00:08:25.869Z,19.23
2022-12-02T00:10:56.356Z,18.73
2022-12-02T00:13:27.360Z,18.13
2022-12-02T00:15:59.426Z,18.97
2022-12-02T00:18:28.313Z,17.60
2022-12-02T00:20:56.649Z,18.97
2022-12-02T00:23:25.380Z,18.43
2022-12-02T00:25:55.024Z,18.17
2022-12-02T00:28:23.410Z,20.03
2022-12-02T00:30:51.459Z,15.63
2022-12-02T00:33:21.256Z,17.33
2022-12-02T00:35:49.259Z,17.13
2022-12-02T00:38:17.308Z,16.60
2022-12-02T00:40:45.453Z,17.57
2022-12-02T00:43:30.891Z,17.03
2022-12-02T00:46:16.594Z,16.57
2022-12-02T00:48:45.974Z,17.43
2022-12-02T00:51:14.084Z,16.93
2022-12-02T00:53:42.082Z,18.80
2022-12-02T00:56:10.109Z,16.90
2022-12-02T00:58:38.065Z,15.27
2022-12-02T01:01:06.294Z,16.90
2022-12-02T01:03:34.290Z,17.57
2022-12-02T01:06:03.876Z,15.30
2022-12-02T01:08:32.112Z,14.60
2022-12-02T01:11:00.363Z,15.20
2022-12-02T01:13:29.486Z,15.40
2022-12-02T01:15:57.470Z,16.20
2022-12-02T01:18:25.540Z,14.07
2022-12-02T01:20:53.828Z,16.50
2022-12-02T01:23:23.281Z,13.80
2022-12-02T01:25:51.289Z,14.43
2022-12-02T01:28:19.373Z,15.27
2022-12-02T01:30:47.752Z,15.00
2022-12-02T01:33:15.837Z,15.87
2022-12-02T01:35:43.834Z,15.87
2022-12-02T01:38:14.159Z,17.50
2022-12-02T01:40:43.680Z,15.43
2022-12-02T01:43:12.179Z,16.13
2022-12-02T01:45:40.415Z,17.17
2022-12-02T01:48:08.972Z,17.03
2022-12-02T01:50:37.269Z,17.20
2022-12-02T01:53:05.287Z,17.37
2022-12-02T01:55:33.842Z,15.17
2022-12-02T01:58:03.309Z,16.83
2022-12-02T02:00:31.449Z,18.70
2022-12-02T02:02:59.506Z,15.80
2022-12-02T02:05:31.792Z,16.30
2022-12-02T02:08:05.198Z,16.97
2022-12-02T02:10:33.707Z,17.20
2022-12-02T02:13:03.723Z,17.70
2022-12-02T02:15:33.329Z,15.70
2022-12-02T02:18:05.167Z,15.23
2022-12-02T02:20:35.468Z,14.53
2022-12-02T02:23:17.921Z,16.37
2022-12-02T02:25:47.746Z,16.17
2022-12-02T02:28:19.519Z,15.57
2022-12-02T02:30:47.984Z,16.87
2022-12-02T02:33:17.016Z,16.80
2022-12-02T02:35:47.420Z,16.33
2022-12-02T02:38:20.600Z,16.40
2022-12-02T02:40:49.695Z,15.30
2022-12-02T02:43:21.049Z,16.07
2022-12-02T02:45:50.379Z,15.37
2022-12-02T02:48:19.937Z,16.00
2022-12-02T02:50:49.358Z,17.10
2022-12-02T02:53:23.557Z,16.90
2022-12-02T02:55:54.153Z,16.67
2022-12-02T02:58:25.072Z,15.80
2022-12-02T03:00:57.651Z,16.67
2022-12-02T03:03:28.936Z,17.40
2022-12-02T03:05:58.525Z,17.40
2022-12-02T03:08:31.956Z,16.43
2022-12-02T03:11:02.011Z,16.43
2022-12-02T03:13:32.256Z,17.27
2022-12-02T03:16:01.544Z,16.80
2022-12-02T03:18:29.981Z,17.03
2022-12-02T03:20:58.716Z,17.03
2022-12-02T03:23:28.899Z,17.27
2022-12-02T03:25:57.827Z,18.57
2022-12-02T03:28:26.052Z,16.87
2022-12-02T03:30:54.358Z,18.50
2022-12-02T03:33:22.696Z,18.43
2022-12-02T03:35:50.991Z,18.70
2022-12-02T03:38:19.292Z,18.00
2022-12-02T03:40:49.287Z,19.00
2022-12-02T03:43:17.385Z,19.77
2022-12-02T03:45:45.499Z,18.17
2022-12-02T03:48:14.572Z,18.40
2022-12-02T03:50:43.474Z,19.10
2022-12-02T03:53:11.520Z,17.60
2022-12-02T03:55:39.537Z,17.40
2022-12-02T03:58:09.543Z,18.13
2022-12-02T04:00:38.333Z,18.60
2022-12-02T04:03:07.251Z,16.97
2022-12-02T04:05:35.395Z,17.63
2022-12-02T04:08:03.400Z,16.00
2022-12-02T04:10:31.376Z,17.17
2022-12-02T04:12:59.467Z,19.17
2022-12-02T04:15:28.818Z,18.97
2022-12-02T04:17:56.868Z,19.23
2022-12-02T04:20:24.884Z,17.90
2022-12-02T04:22:52.919Z,17.57
2022-12-02T04:25:20.930Z,18.40
2022-12-02T04:27:48.994Z,17.90
2022-12-02T04:30:17.237Z,19.17
2022-12-02T04:32:46.555Z,19.17
2022-12-02T04:35:14.608Z,19.00
2022-12-02T04:37:42.609Z,21.23
2022-12-02T04:40:11.505Z,19.73
2022-12-02T04:42:39.518Z,19.83
2022-12-02T04:45:08.470Z,19.03
2022-12-02T04:47:36.439Z,19.40
2022-12-02T04:50:07.418Z,17.53
2022-12-02T04:52:35.421Z,19.50
2022-12-02T04:55:03.380Z,19.77
2022-12-02T04:57:32.071Z,20.20
2022-12-02T05:00:00.229Z,20.50
2022-12-02T05:02:28.725Z,20.20
2022-12-02T05:04:57.045Z,21.43
2022-12-02T05:07:26.733Z,20.67
2022-12-02T05:09:55.722Z,19.73
2022-12-02T05:12:24.237Z,20.93
2022-12-02T05:14:52.859Z,18.63
2022-12-02T05:17:21.368Z,20.90
2022-12-02T05:19:49.390Z,20.60
2022-12-02T05:22:17.586Z,18.57
2022-12-02T05:24:48.329Z,19.70
2022-12-02T05:27:17.300Z,19.87
2022-12-02T05:29:45.262Z,18.17
2022-12-02T05:32:13.278Z,19.50
2022-12-02T05:34:41.260Z,18.40
2022-12-02T05:37:09.321Z,19.90
2022-12-02T05:39:38.331Z,23.67
2022-12-02T05:42:14.437Z,21.23
2022-12-02T05:44:43.743Z,19.70
2022-12-02T05:47:13.597Z,20.67
2022-12-02T05:49:42.775Z,18.67
2022-12-02T05:52:21.015Z,17.07
2022-12-02T05:54:49.517Z,18.60
2022-12-02T05:57:28.165Z,18.30
2022-12-02T06:00:12.513Z,20.97
2022-12-02T06:02:43.875Z,19.20
2022-12-02T06:05:20.589Z,18.70
2022-12-02T06:07:53.326Z,19.40
2022-12-02T06:10:26.440Z,18.37
2022-12-02T06:13:00.206Z,19.40
2022-12-02T06:15:33.685Z,20.07
2022-12-02T06:18:01.721Z,20.87
2022-12-02T06:20:34.898Z,21.30
2022-12-02T06:23:04.177Z,21.63
2022-12-02T06:25:33.374Z,21.87
2022-12-02T06:28:11.073Z,21.87
2022-12-02T06:30:39.335Z,21.53
2022-12-02T06:33:22.747Z,23.97
2022-12-02T06:35:51.561Z,21.57
2022-12-02T06:38:27.550Z,23.30
2022-12-02T06:40:55.711Z,21.10
2022-12-02T06:43:28.235Z,22.50
2022-12-02T06:45:56.326Z,22.47
2022-12-02T06:48:31.857Z,22.40
2022-12-02T06:51:07.153Z,23.43
2022-12-02T06:53:37.096Z,23.17
2022-12-02T06:56:23.117Z,25.67
2022-12-02T06:58:58.053Z,25.20
2022-12-02T07:01:31.439Z,25.40
2022-12-02T07:04:24.775Z,24.20
2022-12-02T07:06:55.269Z,23.80
2022-12-02T07:09:30.987Z,25.10
2022-12-02T07:12:00.795Z,26.97
2022-12-02T07:14:38.066Z,22.70
2022-12-02T07:17:20.312Z,26.00
2022-12-02T07:19:51.362Z,25.63
2022-12-02T07:22:21.667Z,25.20
2022-12-02T07:24:57.216Z,24.20
2022-12-02T07:27:27.683Z,24.80
2022-12-02T07:29:57.971Z,25.00
2022-12-02T07:32:25.978Z,26.00
2022-12-02T07:34:54.227Z,24.93
2022-12-02T07:37:22.472Z,25.20
2022-12-02T07:39:50.583Z,24.33
2022-12-02T07:42:18.628Z,25.00
2022-12-02T07:44:46.715Z,25.27
2022-12-02T07:47:16.043Z,26.07
2022-12-02T07:49:44.035Z,24.47
2022-12-02T07:52:12.032Z,26.33
2022-12-02T07:54:40.080Z,29.97
2022-12-02T07:57:08.283Z,26.90
2022-12-02T07:59:36.319Z,26.47
